Time;durP1;ratioP1;P1;durP2;ratioP2;P2;SDS_P1;SDS_P2;PMS_P1;PMS_P2;Temp;Humidity;BMP_temperature;BMP_pressure;BME280_temperature;BME280_humidity;BME280_pressure;Samples;Min_cycle;Max_cycle;Signal;HPM_P1;HPM_P2
2021/07/08 00:00:42;;;;;;;1.87;1.42;;;;;;;18.45;100.00;101302.97;1728140;81;20980;-49
2021/07/08 00:03:09;;;;;;;2.08;1.55;;;;;;;18.42;100.00;101302.19;1737265;81;21533;-45
2021/07/08 00:05:38;;;;;;;1.20;0.93;;;;;;;18.41;100.00;101298.61;1747086;81;21011;-44
2021/07/08 00:08:05;;;;;;;1.60;1.47;;;;;;;18.40;100.00;101297.55;1754528;81;20980;-49
2021/07/08 00:10:36;;;;;;;3.33;1.80;;;;;;;18.38;100.00;101297.85;1756292;81;21560;-44
2021/07/08 00:13:02;;;;;;;1.50;1.22;;;;;;;18.36;100.00;101305.64;1746036;81;20987;-48
2021/07/08 00:15:29;;;;;;;1.52;1.42;;;;;;;18.35;100.00;101306.78;1680158;85;21746;-43
2021/07/08 00:17:56;;;;;;;2.15;1.55;;;;;;;18.33;100.00;101312.38;1671762;84;21038;-43
2021/07/08 00:20:23;;;;;;;1.62;1.20;;;;;;;18.30;100.00;101308.82;1696382;84;21599;-43
2021/07/08 00:22:51;;;;;;;1.75;1.30;;;;;;;18.24;100.00;101307.55;1736742;80;20994;-50
2021/07/08 00:25:24;;;;;;;1.27;1.17;;;;;;;18.23;100.00;101307.88;1680133;84;21038;-49
2021/07/08 00:27:51;;;;;;;3.95;1.40;;;;;;;18.21;100.00;101310.13;1724723;81;21034;-44
2021/07/08 00:30:19;;;;;;;3.37;1.75;;;;;;;18.18;100.00;101321.83;1696230;84;20959;-49
2021/07/08 00:32:47;;;;;;;3.05;1.65;;;;;;;18.15;100.00;101315.51;1685858;83;21023;-44
2021/07/08 00:35:13;;;;;;;1.87;1.52;;;;;;;18.15;100.00;101321.04;1757443;81;21450;-50
2021/07/08 00:37:40;;;;;;;3.12;1.70;;;;;;;18.12;100.00;101323.05;1762910;81;20963;-49
2021/07/08 00:40:09;;;;;;;1.22;1.12;;;;;;;18.08;100.00;101325.63;1751091;81;21010;-44
2021/07/08 00:42:36;;;;;;;1.62;1.10;;;;;;;18.04;100.00;101328.74;1727695;83;21070;-44
2021/07/08 00:45:06;;;;;;;1.92;1.10;;;;;;;17.99;100.00;101325.52;1727814;81;21025;-44
2021/07/08 00:47:32;;;;;;;2.27;1.30;;;;;;;17.97;100.00;101321.42;1691972;83;20967;-49
2021/07/08 00:49:58;;;;;;;5.05;1.42;;;;;;;17.95;100.00;101328.66;1727462;81;20990;-49
2021/07/08 00:52:26;;;;;;;1.77;1.20;;;;;;;17.93;100.00;101327.33;1729232;81;20999;-49
2021/07/08 00:54:53;;;;;;;1.80;1.30;;;;;;;17.91;100.00;101333.16;1679455;85;21062;-44
2021/07/08 00:57:23;;;;;;;1.90;1.57;;;;;;;17.89;100.00;101327.11;1702386;84;21021;-45
2021/07/08 00:59:54;;;;;;;2.50;1.52;;;;;;;17.89;100.00;101332.64;1683916;83;20896;-49
2021/07/08 01:02:18;;;;;;;1.32;1.00;;;;;;;17.89;100.00;101335.41;1662534;84;20982;-49
2021/07/08 01:04:47;;;;;;;1.85;1.47;;;;;;;17.88;100.00;101330.17;1699069;83;21494;-45
2021/07/08 01:07:20;;;;;;;1.75;1.40;;;;;;;17.84;100.00;101335.51;1668755;84;21062;-43
2021/07/08 01:09:49;;;;;;;2.58;1.50;;;;;;;17.81;100.00;101331.98;1718877;82;21006;-49
2021/07/08 01:12:16;;;;;;;6.65;1.40;;;;;;;17.78;100.00;101333.95;1678686;85;20994;-45
2021/07/08 01:14:43;;;;;;;1.57;1.07;;;;;;;17.78;100.00;101345.02;1676578;84;21537;-49
2021/07/08 01:17:10;;;;;;;1.80;1.37;;;;;;;17.75;100.00;101337.31;1673473;84;21025;-49
2021/07/08 01:19:41;;;;;;;3.90;2.02;;;;;;;17.73;100.00;101345.92;1679165;84;21028;-48
2021/07/08 01:22:07;;;;;;;2.00;1.60;;;;;;;17.75;100.00;101351.13;1704849;84;20993;-44
2021/07/08 01:24:35;;;;;;;5.92;1.67;;;;;;;17.74;100.00;101351.70;1695089;83;21387;-49
2021/07/08 01:27:02;;;;;;;2.40;1.50;;;;;;;17.73;100.00;101350.61;1671447;84;21026;-49
2021/07/08 01:29:29;;;;;;;4.33;1.50;;;;;;;17.69;100.00;101346.84;1672186;84;21059;-45
2021/07/08 01:31:56;;;;;;;1.80;1.27;;;;;;;17.66;100.00;101355.75;1729319;81;21493;-43
2021/07/08 01:34:23;;;;;;;1.72;1.62;;;;;;;17.66;100.00;101354.37;1651044;85;21038;-48
2021/07/08 01:36:50;;;;;;;2.45;2.17;;;;;;;17.66;100.00;101361.28;1691431;83;21302;-49
2021/07/08 01:39:19;;;;;;;1.82;1.60;;;;;;;17.65;100.00;101359.63;1728421;81;21010;-44
2021/07/08 01:41:45;;;;;;;1.20;1.10;;;;;;;17.65;100.00;101366.53;1655242;85;21030;-50
2021/07/08 01:44:12;;;;;;;8.98;2.90;;;;;;;17.63;100.00;101373.19;1744592;81;20999;-44
2021/07/08 01:46:39;;;;;;;1.82;1.50;;;;;;;17.63;100.00;101367.66;1757222;81;21030;-43
2021/07/08 01:49:06;;;;;;;3.05;2.10;;;;;;;17.63;100.00;101367.66;1757370;80;20999;-49
2021/07/08 01:51:34;;;;;;;2.42;1.67;;;;;;;17.63;100.00;101364.09;1756973;81;20975;-49
2021/07/08 01:54:01;;;;;;;2.98;1.92;;;;;;;17.63;100.00;101369.05;1739372;81;21430;-49
2021/07/08 01:56:28;;;;;;;1.90;1.60;;;;;;;17.63;100.00;101362.70;1669996;85;21019;-49
2021/07/08 01:58:55;;;;;;;2.12;1.92;;;;;;;17.63;100.00;101362.14;1727540;81;20995;-49
2021/07/08 02:01:21;;;;;;;3.50;2.42;;;;;;;17.63;100.00;101368.23;1636081;86;20958;-49
2021/07/08 02:03:49;;;;;;;4.35;2.60;;;;;;;17.63;100.00;101363.52;1727372;81;21022;-50
2021/07/08 02:06:16;;;;;;;2.50;1.32;;;;;;;17.67;100.00;101365.67;1667929;85;20986;-43
2021/07/08 02:08:43;;;;;;;1.80;1.35;;;;;;;17.67;100.00;101371.20;1678739;85;21030;-50
2021/07/08 02:11:11;;;;;;;2.85;1.80;;;;;;;17.65;100.00;101372.05;1653736;84;20986;-44
2021/07/08 02:13:38;;;;;;;4.78;1.17;;;;;;;17.62;100.00;101374.30;1679097;84;21045;-49
2021/07/08 02:16:06;;;;;;;1.60;1.32;;;;;;;17.60;100.00;101375.16;1670272;84;21002;-49
2021/07/08 02:18:33;;;;;;;2.77;1.80;;;;;;;17.57;100.00;101373.02;1679607;83;21038;-49
2021/07/08 02:21:00;;;;;;;4.35;1.65;;;;;;;17.56;100.00;101367.81;1752046;81;21042;-44
2021/07/08 02:23:27;;;;;;;3.42;2.37;;;;;;;17.57;100.00;101372.20;1742745;81;21014;-44
2021/07/08 02:25:53;;;;;;;3.05;1.87;;;;;;;17.59;100.00;101373.53;1645472;85;21058;-43
2021/07/08 02:28:20;;;;;;;2.30;2.10;;;;;;;17.64;100.00;101376.77;1730357;81;20987;-45
2021/07/08 02:30:47;;;;;;;2.60;2.30;;;;;;;17.70;100.00;101384.40;1733744;81;21493;-48
2021/07/08 02:33:14;;;;;;;2.40;1.77;;;;;;;17.76;100.00;101383.19;1731404;81;21609;-50
2021/07/08 02:35:41;;;;;;;4.33;2.62;;;;;;;17.82;100.00;101382.80;1720744;82;21445;-50
2021/07/08 02:38:07;;;;;;;3.02;2.60;;;;;;;17.89;100.00;101389.89;1728267;81;21082;-44
2021/07/08 02:40:35;;;;;;;3.17;1.92;;;;;;;17.96;100.00;101386.97;1727218;83;21070;-49
2021/07/08 02:43:03;;;;;;;2.60;2.02;;;;;;;18.03;100.00;101385.19;1744635;81;21030;-49
2021/07/08 02:45:33;;;;;;;3.10;1.72;;;;;;;18.09;100.00;101384.52;1742317;81;21078;-45
2021/07/08 02:48:01;;;;;;;3.33;2.22;;;;;;;18.16;100.00;101386.31;1745063;80;21026;-44
2021/07/08 02:50:28;;;;;;;2.67;2.05;;;;;;;18.24;100.00;101387.78;1751119;81;21165;-49
2021/07/08 02:52:57;;;;;;;3.20;2.33;;;;;;;18.35;100.00;101388.41;1753639;81;20990;-44
2021/07/08 02:55:23;;;;;;;5.80;2.33;;;;;;;18.43;100.00;101386.86;1643383;85;21601;-43
2021/07/08 02:57:50;;;;;;;3.72;2.20;;;;;;;18.52;100.00;101391.08;1735361;81;20991;-49
2021/07/08 03:00:21;;;;;;;6.78;2.25;;;;;;;18.63;100.00;101389.73;1735284;81;21026;-49
2021/07/08 03:02:48;;;;;;;2.92;1.85;;;;;;;18.74;100.00;101395.28;1728309;81;21472;-43
2021/07/08 03:05:15;;;;;;;3.12;1.90;;;;;;;18.86;100.00;101395.58;1753578;81;21357;-49
2021/07/08 03:07:43;;;;;;;4.58;2.25;;;;;;;18.98;100.00;101391.45;1730614;81;21450;-44
2021/07/08 03:10:12;;;;;;;3.15;1.95;;;;;;;19.11;100.00;101396.95;1733064;81;21781;-49
2021/07/08 03:12:39;;;;;;;3.12;2.40;;;;;;;19.26;100.00;101395.76;1742710;81;20956;-49
2021/07/08 03:15:07;;;;;;;3.42;1.80;;;;;;;19.41;100.00;101393.71;1723776;81;21453;-49
2021/07/08 03:17:35;;;;;;;3.10;2.25;;;;;;;19.56;100.00;101405.81;1743637;81;21695;-44
2021/07/08 03:20:10;;;;;;;2.45;2.20;;;;;;;19.73;100.00;101400.40;1727481;81;20983;-49
2021/07/08 03:22:37;;;;;;;3.42;2.58;;;;;;;19.91;100.00;101399.09;1756279;81;21511;-44
2021/07/08 03:25:05;;;;;;;3.37;2.42;;;;;;;20.13;100.00;101405.95;1735577;81;21573;-44
2021/07/08 03:27:33;;;;;;;2.65;2.00;;;;;;;20.34;100.00;101400.61;1683270;84;21054;-48
2021/07/08 03:30:00;;;;;;;3.15;2.10;;;;;;;20.55;100.00;101409.20;1691801;84;21003;-44
2021/07/08 03:32:27;;;;;;;2.50;2.30;;;;;;;20.74;100.00;101415.02;1706663;83;21452;-45
2021/07/08 03:34:53;;;;;;;3.27;2.15;;;;;;;20.91;100.00;101408.08;1682150;83;21033;-44
2021/07/08 03:37:20;;;;;;;3.02;1.85;;;;;;;21.09;100.00;101415.03;1728957;81;21483;-45
2021/07/08 03:39:47;;;;;;;3.08;2.10;;;;;;;21.24;100.00;101418.69;1731475;81;20999;-49
2021/07/08 03:42:14;;;;;;;3.83;2.37;;;;;;;21.38;100.00;101417.95;1684134;84;21483;-50
2021/07/08 03:44:40;;;;;;;2.87;1.95;;;;;;;21.52;100.00;101423.95;1702409;83;21847;-49
2021/07/08 03:47:07;;;;;;;4.42;2.40;;;;;;;21.65;100.00;101428.48;1720726;83;21080;-50
2021/07/08 03:49:34;;;;;;;3.47;2.15;;;;;;;21.76;100.00;101427.00;1720955;83;21428;-50
2021/07/08 03:52:01;;;;;;;3.47;2.10;;;;;;;21.87;99.32;101433.81;1710933;83;21038;-49
2021/07/08 03:54:27;;;;;;;3.35;2.25;;;;;;;22.00;98.25;101431.16;1733181;81;21411;-44
2021/07/08 03:56:54;;;;;;;1.90;1.55;;;;;;;22.11;97.13;101436.03;1671957;85;21512;-44
2021/07/08 03:59:20;;;;;;;4.03;2.40;;;;;;;22.24;96.56;101434.20;1672915;84;21034;-46
2021/07/08 04:01:49;;;;;;;3.52;2.25;;;;;;;22.37;95.59;101434.30;1684764;84;21086;-45
2021/07/08 04:04:15;;;;;;;3.92;2.45;;;;;;;22.47;94.67;101438.90;1700177;84;21017;-45
2021/07/08 04:06:42;;;;;;;2.62;1.67;;;;;;;22.58;94.08;101442.12;1696343;84;21042;-44
2021/07/08 04:09:08;;;;;;;2.20;1.82;;;;;;;22.68;93.44;101444.52;1688852;84;21611;-50
2021/07/08 04:11:35;;;;;;;4.70;2.45;;;;;;;22.78;91.54;101441.92;1699300;84;21436;-50
2021/07/08 04:14:01;;;;;;;3.30;1.90;;;;;;;22.86;90.38;101443.00;1687484;84;21461;-45
2021/07/08 04:16:28;;;;;;;2.95;1.70;;;;;;;22.94;89.94;101437.94;1700726;83;21026;-49
2021/07/08 04:18:55;;;;;;;4.92;2.90;;;;;;;22.99;88.04;101434.16;1696579;83;21081;-44
2021/07/08 04:21:22;;;;;;;3.35;2.15;;;;;;;23.03;87.79;101435.94;1682283;85;21006;-50
2021/07/08 04:23:48;;;;;;;2.72;2.17;;;;;;;23.12;88.05;101439.48;1694735;83;21161;-45
2021/07/08 04:26:15;;;;;;;2.60;1.90;;;;;;;23.22;86.50;101441.59;1688035;83;21524;-45
2021/07/08 04:28:42;;;;;;;2.98;2.00;;;;;;;23.29;86.60;101440.46;1704481;83;21034;-45
2021/07/08 04:31:09;;;;;;;3.70;2.47;;;;;;;23.37;86.19;101447.95;1702158;83;21011;-44
2021/07/08 04:33:39;;;;;;;4.72;2.52;;;;;;;23.47;85.57;101446.13;1697653;83;21857;-45
2021/07/08 04:36:05;;;;;;;2.30;1.65;;;;;;;23.56;85.03;101444.05;1681908;84;21054;-44
2021/07/08 04:38:31;;;;;;;2.65;1.75;;;;;;;23.67;84.10;101447.83;1687447;83;21010;-49
2021/07/08 04:40:59;;;;;;;3.80;2.12;;;;;;;23.75;83.23;101445.54;1690937;83;21058;-50
2021/07/08 04:43:25;;;;;;;2.42;1.77;;;;;;;23.81;83.08;101448.33;1689352;83;21520;-45
2021/07/08 04:45:52;;;;;;;1.90;1.40;;;;;;;23.88;82.48;101449.17;1707936;83;20987;-44
2021/07/08 04:48:18;;;;;;;2.52;2.15;;;;;;;23.97;82.34;101452.09;1697304;83;21026;-45
2021/07/08 04:50:45;;;;;;;3.15;2.30;;;;;;;24.08;81.94;101461.41;1696273;83;21386;-44
2021/07/08 04:53:16;;;;;;;2.45;2.05;;;;;;;24.19;81.90;101462.02;1692732;83;21444;-50
2021/07/08 04:55:44;;;;;;;3.52;2.00;;;;;;;24.34;81.30;101466.69;1681716;85;21090;-50
2021/07/08 04:58:11;;;;;;;2.12;1.75;;;;;;;24.46;80.81;101464.73;1686760;83;21014;-44
2021/07/08 05:00:38;;;;;;;3.37;2.25;;;;;;;24.58;79.75;101462.52;1688030;83;21539;-50
2021/07/08 05:03:08;;;;;;;2.87;2.55;;;;;;;24.66;78.09;101471.35;1687972;83;21562;-50
2021/07/08 05:05:36;;;;;;;2.87;1.90;;;;;;;24.73;77.68;101476.92;1690232;83;21010;-50
2021/07/08 05:08:04;;;;;;;2.75;1.90;;;;;;;24.80;77.86;101475.19;1685429;83;21473;-44
2021/07/08 05:10:31;;;;;;;3.08;2.05;;;;;;;24.92;77.62;101481.32;1703737;83;21095;-50
2021/07/08 05:13:00;;;;;;;2.42;1.75;;;;;;;25.05;76.90;101484.93;1690804;83;21030;-44
2021/07/08 05:15:27;;;;;;;2.30;2.08;;;;;;;25.14;76.71;101489.78;1686404;85;21006;-44
2021/07/08 05:17:53;;;;;;;2.70;2.05;;;;;;;25.24;75.60;101493.50;1697683;84;21470;-50
2021/07/08 05:20:20;;;;;;;3.27;1.65;;;;;;;25.30;75.17;101489.30;1728679;82;21534;-50
2021/07/08 05:22:49;;;;;;;2.37;1.92;;;;;;;25.35;74.29;101491.04;1746137;81;20992;-45
2021/07/08 05:25:17;;;;;;;2.27;2.05;;;;;;;25.40;73.67;101495.58;1745948;82;20984;-51
2021/07/08 05:27:43;;;;;;;4.67;1.90;;;;;;;25.47;74.05;101492.95;1733958;82;21487;-45
2021/07/08 05:30:11;;;;;;;3.33;1.67;;;;;;;25.57;73.69;101493.88;1714191;83;21340;-50
2021/07/08 05:32:37;;;;;;;2.25;1.50;;;;;;;25.68;72.65;101495.56;1726837;81;21617;-50
2021/07/08 05:35:05;;;;;;;2.08;1.57;;;;;;;25.77;72.63;101496.22;1759324;81;21377;-45
2021/07/08 05:37:31;;;;;;;2.67;1.60;;;;;;;25.84;70.78;101496.98;1735593;81;21002;-51
2021/07/08 05:39:58;;;;;;;1.92;1.70;;;;;;;25.85;69.09;101497.22;1743186;81;21003;-50
2021/07/08 05:42:25;;;;;;;3.83;1.80;;;;;;;25.84;69.26;101500.61;1753176;81;20959;-44
2021/07/08 05:44:51;;;;;;;2.65;1.57;;;;;;;25.86;69.25;101496.07;1744674;81;20982;-45
2021/07/08 05:47:18;;;;;;;2.72;1.60;;;;;;;25.91;68.48;101502.80;1763959;81;21059;-45
2021/07/08 05:49:45;;;;;;;2.02;1.57;;;;;;;25.99;69.15;101508.84;1765644;81;21009;-45
2021/07/08 05:52:11;;;;;;;2.15;1.30;;;;;;;26.11;68.21;101505.97;1753707;81;21061;-50
2021/07/08 05:54:38;;;;;;;1.62;1.37;;;;;;;26.18;67.09;101508.93;1686677;83;21002;-44
2021/07/08 05:57:06;;;;;;;1.90;1.70;;;;;;;26.22;65.70;101505.43;1682482;85;21026;-50
2021/07/08 05:59:34;;;;;;;1.30;1.12;;;;;;;26.23;66.94;101501.44;1682442;85;21550;-44
2021/07/08 06:02:00;;;;;;;1.60;1.40;;;;;;;26.29;66.20;101511.22;1691493;83;21469;-49
2021/07/08 06:04:27;;;;;;;1.98;1.60;;;;;;;26.35;65.93;101508.36;1687802;83;20903;-50
2021/07/08 06:06:54;;;;;;;2.20;1.27;;;;;;;26.42;66.12;101508.53;1719887;82;21045;-51
2021/07/08 06:09:20;;;;;;;1.87;1.25;;;;;;;26.52;66.08;101507.98;1737536;81;21038;-50
2021/07/08 06:11:50;;;;;;;1.77;1.30;;;;;;;26.61;65.61;101498.03;1668222;84;21066;-44
2021/07/08 06:14:17;;;;;;;2.02;1.60;;;;;;;26.72;65.20;101501.08;1689344;84;21035;-45
2021/07/08 06:16:44;;;;;;;1.70;1.37;;;;;;;26.85;65.45;101503.98;1685164;85;21063;-44
2021/07/08 06:19:10;;;;;;;2.08;1.30;;;;;;;26.98;63.58;101501.89;1744511;81;21031;-45
2021/07/08 06:21:37;;;;;;;2.25;1.90;;;;;;;27.05;62.62;101502.02;1691580;84;21017;-50
2021/07/08 06:24:07;;;;;;;2.08;1.50;;;;;;;27.16;62.99;101500.28;1692526;83;21013;-49
2021/07/08 06:26:33;;;;;;;1.20;1.10;;;;;;;27.28;63.87;101502.77;1740691;81;21022;-51
2021/07/08 06:28:59;;;;;;;1.75;1.45;;;;;;;27.40;61.15;101503.43;1742758;79;21473;-45
2021/07/08 06:31:27;;;;;;;1.87;1.37;;;;;;;27.45;61.78;101505.13;1752238;81;21860;-44
2021/07/08 06:33:54;;;;;;;2.60;1.75;;;;;;;27.45;58.39;101503.12;1735991;81;21432;-45
2021/07/08 06:36:20;;;;;;;1.65;1.55;;;;;;;27.39;59.09;101498.17;1686779;84;21455;-51
2021/07/08 06:38:47;;;;;;;2.35;1.50;;;;;;;27.35;58.69;101502.32;1695010;84;21037;-50
2021/07/08 06:41:13;;;;;;;1.98;1.25;;;;;;;27.34;58.90;101509.09;1735318;82;20992;-45
2021/07/08 06:43:40;;;;;;;3.92;1.62;;;;;;;27.33;58.96;101507.48;1687358;84;21013;-47
2021/07/08 06:46:08;;;;;;;1.67;1.40;;;;;;;27.37;60.24;101504.73;1697793;82;21008;-45
2021/07/08 06:48:35;;;;;;;2.40;1.30;;;;;;;27.41;59.83;101514.86;1699666;81;21016;-50
2021/07/08 06:51:02;;;;;;;1.42;1.32;;;;;;;27.47;59.10;101510.36;1732117;82;20978;-45
2021/07/08 06:53:28;;;;;;;1.65;1.40;;;;;;;27.48;57.90;101516.20;1735427;81;21014;-44
2021/07/08 06:55:55;;;;;;;1.65;1.42;;;;;;;27.50;59.19;101515.22;1666396;84;21081;-50
2021/07/08 06:58:22;;;;;;;1.55;1.22;;;;;;;27.56;57.37;101520.78;1690426;83;21004;-45
2021/07/08 07:00:49;;;;;;;1.35;1.00;;;;;;;27.65;58.37;101520.77;1687333;83;21676;-50
2021/07/08 07:03:15;;;;;;;1.30;1.20;;;;;;;27.79;58.01;101522.22;1747042;81;21045;-45
2021/07/08 07:05:42;;;;;;;1.80;1.32;;;;;;;27.91;57.10;101525.50;1764997;80;20998;-49
2021/07/08 07:08:09;;;;;;;1.80;1.30;;;;;;;27.97;56.31;101522.62;1751560;81;20978;-44
2021/07/08 07:10:36;;;;;;;1.75;1.62;;;;;;;28.02;55.91;101523.71;1695546;83;21034;-45
2021/07/08 07:13:05;;;;;;;1.22;1.02;;;;;;;28.07;56.96;101520.00;1690974;83;21000;-50
2021/07/08 07:15:31;;;;;;;2.42;1.22;;;;;;;28.19;56.19;101523.80;1736522;82;21006;-50
2021/07/08 07:17:59;;;;;;;1.35;1.15;;;;;;;28.32;56.92;101529.46;1739237;81;20923;-46
2021/07/08 07:20:26;;;;;;;1.75;1.10;;;;;;;28.43;54.01;101519.80;1672222;84;21006;-50
2021/07/08 07:22:53;;;;;;;1.12;1.02;;;;;;;28.48;54.91;101523.72;1736121;81;20997;-49
2021/07/08 07:25:21;;;;;;;1.45;1.35;;;;;;;28.57;54.30;101523.48;1776650;79;20967;-45
2021/07/08 07:27:52;;;;;;;1.72;1.20;;;;;;;28.57;52.14;101527.09;1724844;82;21027;-43
2021/07/08 07:30:22;;;;;;;1.40;1.05;;;;;;;28.47;52.72;101527.73;1754930;81;20998;-44
2021/07/08 07:32:50;;;;;;;0.95;0.80;;;;;;;28.42;53.75;101530.23;1724533;82;21448;-49
2021/07/08 07:35:17;;;;;;;2.27;0.78;;;;;;;28.53;53.29;101531.84;1745876;81;21001;-50
2021/07/08 07:37:43;;;;;;;1.10;0.90;;;;;;;28.65;52.97;101537.26;1671537;83;21014;-44
2021/07/08 07:40:13;;;;;;;2.75;1.40;;;;;;;28.80;52.09;101541.70;1742371;79;21013;-45
2021/07/08 07:42:40;;;;;;;1.62;1.00;;;;;;;28.91;51.67;101539.88;1775751;79;21515;-45
2021/07/08 07:45:09;;;;;;;1.32;1.05;;;;;;;29.00;51.68;101547.43;1750210;80;21047;-44
2021/07/08 07:47:35;;;;;;;1.27;0.90;;;;;;;29.12;50.98;101548.64;1750638;81;21477;-43
2021/07/08 07:50:04;;;;;;;1.62;1.00;;;;;;;29.30;50.02;101555.11;1761500;81;21038;-49
2021/07/08 07:52:31;;;;;;;1.75;1.30;;;;;;;29.38;48.93;101552.63;1765569;81;21408;-49
2021/07/08 07:54:57;;;;;;;0.90;0.80;;;;;;;29.37;49.62;101553.20;1763503;81;21149;-44
2021/07/08 07:57:24;;;;;;;1.07;0.90;;;;;;;29.45;48.30;101555.54;1744658;81;20971;-49
2021/07/08 07:59:51;;;;;;;1.30;1.02;;;;;;;29.51;47.63;101555.41;1683625;83;21468;-44
2021/07/08 08:02:18;;;;;;;1.12;0.75;;;;;;;29.41;46.70;101552.46;1738240;81;21010;-49
2021/07/08 08:04:52;;;;;;;1.15;0.78;;;;;;;29.33;46.00;101555.78;1729316;83;21419;-49
2021/07/08 08:09:59;;;;;;;1.55;0.65;;;;;;;29.13;46.12;101556.52;1725237;83;21608;-44
2021/07/08 08:12:26;;;;;;;2.15;1.00;;;;;;;29.04;46.32;101562.37;1739239;82;21004;-45
2021/07/08 08:14:55;;;;;;;1.72;0.70;;;;;;;29.07;46.92;101562.23;1746579;80;20978;-44
2021/07/08 08:17:22;;;;;;;1.17;0.75;;;;;;;29.14;47.76;101570.19;1743057;82;21005;-45
2021/07/08 08:19:49;;;;;;;1.15;0.80;;;;;;;29.25;46.09;101560.47;1739423;82;21068;-45
2021/07/08 08:22:18;;;;;;;0.70;0.40;;;;;;;29.41;45.66;101563.12;1710628;83;21033;-49
2021/07/08 08:24:44;;;;;;;1.98;0.75;;;;;;;29.59;45.44;101564.14;1698966;83;21068;-45
2021/07/08 08:27:11;;;;;;;0.72;0.55;;;;;;;29.72;44.16;101564.76;1652290;85;20998;-50
2021/07/08 08:29:40;;;;;;;1.17;0.50;;;;;;;29.83;43.77;101567.69;1682908;83;21069;-45
2021/07/08 08:32:09;;;;;;;13.68;1.30;;;;;;;29.95;43.25;101569.44;1728572;83;21009;-49
2021/07/08 08:34:37;;;;;;;0.80;0.45;;;;;;;30.12;43.27;101580.66;1717351;83;21393;-50
2021/07/08 08:37:06;;;;;;;2.30;0.78;;;;;;;30.23;43.45;101562.67;1728924;83;21038;-46
2021/07/08 08:39:33;;;;;;;0.55;0.47;;;;;;;30.32;42.74;101568.03;1711858;83;21511;-49
2021/07/08 08:41:59;;;;;;;0.70;0.62;;;;;;;30.46;41.41;101567.94;1696544;84;21011;-45
2021/07/08 08:44:26;;;;;;;0.75;0.50;;;;;;;30.51;40.16;101569.80;1758999;81;21015;-49
2021/07/08 08:46:53;;;;;;;0.60;0.50;;;;;;;30.55;39.88;101562.79;1761519;80;21552;-44
2021/07/08 08:49:19;;;;;;;0.93;0.40;;;;;;;30.65;38.45;101566.30;1750937;81;21027;-48
2021/07/08 08:51:45;;;;;;;0.55;0.53;;;;;;;30.67;39.15;101575.17;1757709;81;20995;-49
2021/07/08 08:54:12;;;;;;;0.90;0.42;;;;;;;30.73;38.69;101569.98;1742596;81;20995;-45
2021/07/08 08:56:38;;;;;;;1.82;0.40;;;;;;;30.81;38.93;101564.59;1763922;80;21003;-45
2021/07/08 08:59:04;;;;;;;1.47;0.80;;;;;;;30.87;39.29;101560.85;1695172;84;21072;-49
2021/07/08 09:01:31;;;;;;;0.60;0.55;;;;;;;30.98;38.89;101554.66;1716800;83;21013;-45
2021/07/08 09:03:57;;;;;;;0.57;0.53;;;;;;;31.17;38.87;101564.26;1689019;83;21022;-44
2021/07/08 09:06:24;;;;;;;0.65;0.62;;;;;;;31.31;37.97;101561.30;1678657;83;21020;-46
2021/07/08 09:08:52;;;;;;;0.50;0.50;;;;;;;31.34;38.07;101563.34;1727235;82;21038;-45
2021/07/08 09:11:23;;;;;;;1.10;0.62;;;;;;;31.24;36.16;101561.48;1742852;79;21413;-44
2021/07/08 09:14:01;;;;;;;2.15;0.80;;;;;;;31.18;37.39;101563.07;1697205;82;21010;-44
2021/07/08 09:16:37;;;;;;;0.85;0.57;;;;;;;31.22;36.51;101564.48;1754155;81;21043;-50
2021/07/08 09:19:19;;;;;;;0.37;0.35;;;;;;;31.20;36.01;101563.46;1754717;80;20979;-50
2021/07/08 09:21:50;;;;;;;0.88;0.42;;;;;;;31.23;36.04;101559.88;1739723;81;20982;-49
2021/07/08 09:24:34;;;;;;;0.70;0.50;;;;;;;31.23;35.71;101567.50;1727291;83;20879;-49
2021/07/08 09:27:08;;;;;;;0.95;0.82;;;;;;;31.25;36.66;101558.85;1734517;81;20989;-48
2021/07/08 09:29:44;;;;;;;0.65;0.50;;;;;;;31.36;35.44;101560.94;1749566;81;21496;-46
2021/07/08 09:32:16;;;;;;;2.75;0.60;;;;;;;31.33;35.96;101565.95;1741636;81;21047;-45
2021/07/08 09:34:52;;;;;;;1.10;0.53;;;;;;;31.28;36.65;101569.37;1749207;81;21046;-50
2021/07/08 09:37:22;;;;;;;0.80;0.50;;;;;;;31.32;35.44;101567.16;1736004;81;21046;-47
2021/07/08 09:39:52;;;;;;;3.00;1.45;;;;;;;31.34;37.46;101566.17;1741236;81;20979;-48
2021/07/08 09:42:36;;;;;;;1.10;0.72;;;;;;;31.38;35.93;101574.04;1756161;81;21066;-49
2021/07/08 09:45:18;;;;;;;1.20;0.80;;;;;;;31.29;37.59;101575.22;1757176;81;21003;-45
2021/07/08 09:47:46;;;;;;;0.75;0.62;;;;;;;31.27;36.65;101573.38;1738115;81;21025;-50
2021/07/08 09:50:26;;;;;;;1.77;0.75;;;;;;;31.24;37.27;101562.89;1687674;84;21009;-45
2021/07/08 09:53:06;;;;;;;0.93;0.50;;;;;;;31.32;36.32;101558.69;1719023;81;20990;-44
2021/07/08 09:58:56;;;;;;;1.15;0.62;;;;;;;31.16;37.18;101564.06;1746011;81;21018;-45
2021/07/08 10:01:22;;;;;;;1.00;0.80;;;;;;;31.09;37.52;101559.78;1753042;81;20906;-49
2021/07/08 10:03:50;;;;;;;0.70;0.70;;;;;;;31.13;37.70;101556.36;1748215;81;20992;-49
2021/07/08 10:06:18;;;;;;;0.78;0.78;;;;;;;31.19;37.74;101544.92;1746251;81;20998;-49
2021/07/08 10:08:45;;;;;;;0.60;0.60;;;;;;;31.18;37.39;101543.89;1768043;80;20995;-49
2021/07/08 10:11:15;;;;;;;1.32;0.68;;;;;;;31.14;38.35;101541.06;1753175;81;21052;-46
2021/07/08 10:13:43;;;;;;;1.20;1.10;;;;;;;31.16;38.58;101534.42;1762421;81;20963;-49
2021/07/08 10:16:09;;;;;;;0.50;0.50;;;;;;;31.13;35.05;101539.42;1758580;81;20895;-45
2021/07/08 10:18:38;;;;;;;0.95;0.70;;;;;;;30.93;37.49;101529.64;1735196;82;21409;-49
2021/07/08 10:21:05;;;;;;;0.60;0.60;;;;;;;30.94;38.50;101532.08;1738039;81;20988;-50
2021/07/08 10:23:35;;;;;;;0.68;0.68;;;;;;;30.94;37.57;101535.51;1738063;82;21030;-45
2021/07/08 10:26:03;;;;;;;0.62;0.60;;;;;;;30.89;38.21;101529.63;1748342;81;20953;-45
2021/07/08 10:28:30;;;;;;;0.80;0.57;;;;;;;30.92;37.06;101528.03;1719845;83;21017;-49
2021/07/08 10:30:57;;;;;;;0.82;0.68;;;;;;;30.94;38.31;101530.66;1699820;83;21085;-46
2021/07/08 10:33:23;;;;;;;0.95;0.70;;;;;;;30.93;39.09;101531.85;1713656;82;20917;-46
2021/07/08 10:35:53;;;;;;;0.90;0.80;;;;;;;30.99;37.82;101533.11;1736841;81;21011;-49
2021/07/08 10:38:40;;;;;;;0.78;0.75;;;;;;;31.04;37.85;101538.99;1765437;81;21587;-50
2021/07/08 10:41:17;;;;;;;0.57;0.57;;;;;;;31.03;39.01;101540.17;1765618;80;21002;-49
2021/07/08 10:43:45;;;;;;;1.57;0.72;;;;;;;30.99;37.27;101536.55;1756870;80;21081;-44
2021/07/08 10:46:14;;;;;;;1.92;0.78;;;;;;;30.92;39.73;101535.09;1740436;81;21002;-45
2021/07/08 10:48:46;;;;;;;0.98;0.68;;;;;;;31.02;39.18;101540.78;1685616;85;21015;-45
2021/07/08 10:51:30;;;;;;;0.80;0.80;;;;;;;31.20;37.78;101535.23;1758948;81;21461;-45
2021/07/08 10:53:56;;;;;;;3.00;0.70;;;;;;;31.17;36.00;101536.03;1764095;81;21480;-45
2021/07/08 10:56:33;;;;;;;0.60;0.53;;;;;;;31.02;36.17;101539.38;1743040;81;20987;-45
2021/07/08 10:59:13;;;;;;;1.47;0.72;;;;;;;30.91;36.05;101532.88;1762305;81;21271;-46
2021/07/08 11:01:44;;;;;;;0.57;0.57;;;;;;;30.88;36.43;101527.98;1759257;81;21004;-49
2021/07/08 11:04:12;;;;;;;0.50;0.50;;;;;;;31.00;38.49;101529.69;1765526;81;22186;-49
2021/07/08 11:06:43;;;;;;;0.50;0.50;;;;;;;31.19;37.74;101533.62;1732841;80;21069;-46
2021/07/08 11:09:18;;;;;;;0.85;0.60;;;;;;;31.31;38.68;101532.48;1708309;83;21009;-45
2021/07/08 11:11:51;;;;;;;0.82;0.68;;;;;;;31.38;38.92;101528.86;1686261;83;21012;-44
2021/07/08 11:14:25;;;;;;;1.37;0.72;;;;;;;31.47;38.99;101526.52;1712609;83;21464;-49
2021/07/08 11:16:59;;;;;;;0.70;0.60;;;;;;;31.39;37.31;101517.81;1712756;83;21821;-45
2021/07/08 11:19:31;;;;;;;1.05;0.70;;;;;;;31.36;37.68;101521.41;1737385;82;21451;-49
2021/07/08 11:22:11;;;;;;;0.65;0.65;;;;;;;31.41;38.26;101520.45;1741183;82;21375;-44
2021/07/08 11:24:48;;;;;;;0.78;0.78;;;;;;;31.43;39.57;101518.05;1732149;82;21808;-46
2021/07/08 11:27:24;;;;;;;1.40;0.65;;;;;;;31.67;39.71;101524.96;1728031;82;21563;-49
2021/07/08 11:29:53;;;;;;;0.70;0.70;;;;;;;32.03;38.54;101519.44;1710771;82;20982;-45
2021/07/08 11:35:18;;;;;;;0.62;0.42;;;;;;;32.60;37.33;101511.59;1721542;82;21017;-46